createdAt,value
2023-02-04T00:00:19.866Z,98685.28
2023-02-04T00:03:07.497Z,98695.59
2023-02-04T00:05:34.726Z,98680.69
2023-02-04T00:08:02.003Z,98673.28
2023-02-04T00:10:29.801Z,98673.91
2023-02-04T00:12:57.279Z,98681.94
2023-02-04T00:15:24.340Z,98679.78
2023-02-04T00:17:51.539Z,98679.34
2023-02-04T00:20:19.788Z,98667.75
2023-02-04T00:22:47.145Z,98679.06
2023-02-04T00:25:14.275Z,98686.28
2023-02-04T00:27:41.454Z,98691.66
2023-02-04T00:30:10.070Z,98681.94
2023-02-04T00:32:37.394Z,98690.22
2023-02-04T00:35:04.839Z,98691.31
2023-02-04T00:37:33.105Z,98688.09
2023-02-04T00:40:00.185Z,98701.47
2023-02-04T00:42:27.629Z,98689.34
2023-02-04T00:44:54.739Z,98693.50
2023-02-04T00:47:22.033Z,98688.59
2023-02-04T00:49:48.922Z,98698.38
2023-02-04T00:52:16.108Z,98689.84
2023-02-04T00:54:43.200Z,98709.09
2023-02-04T00:57:10.453Z,98712.47
2023-02-04T00:59:37.414Z,98710.94
2023-02-04T01:02:04.715Z,98718.00
2023-02-04T01:04:32.643Z,98730.50
2023-02-04T01:06:59.896Z,98716.31
2023-02-04T01:09:26.857Z,98722.47
2023-02-04T01:11:54.089Z,98733.00
2023-02-04T01:14:21.410Z,98714.78
2023-02-04T01:16:48.753Z,98746.13
2023-02-04T01:19:15.697Z,98729.78
2023-02-04T01:21:42.865Z,98744.19
2023-02-04T01:24:09.831Z,98771.59
2023-02-04T01:26:38.465Z,98771.06
2023-02-04T01:29:05.451Z,98797.31
2023-02-04T01:31:34.122Z,98819.50
2023-02-04T01:34:04.193Z,98824.25
2023-02-04T01:36:31.387Z,98859.19
2023-02-04T01:38:58.884Z,98853.97
2023-02-04T01:41:26.777Z,98850.66
2023-02-04T01:43:54.188Z,98875.13
2023-02-04T01:46:21.518Z,98901.50
2023-02-04T01:48:48.776Z,98894.66
2023-02-04T01:51:28.027Z,98894.78
2023-02-04T01:53:56.245Z,98900.03
2023-02-04T01:56:26.956Z,98939.56
2023-02-04T01:58:57.541Z,98940.50
2023-02-04T02:01:51.084Z,98936.22
2023-02-04T02:04:33.625Z,98938.09
2023-02-04T02:07:05.329Z,98960.63
2023-02-04T02:09:34.544Z,98976.28
2023-02-04T02:12:03.424Z,99001.38
2023-02-04T02:14:30.368Z,98990.06
2023-02-04T02:16:57.790Z,99017.13
2023-02-04T02:19:33.788Z,99034.59
2023-02-04T02:22:32.702Z,99052.97
2023-02-04T02:24:59.682Z,99060.69
2023-02-04T02:27:26.991Z,99060.66
2023-02-04T02:29:53.961Z,99065.03
2023-02-04T02:32:21.218Z,99077.19
2023-02-04T02:34:48.201Z,99095.41
2023-02-04T02:37:15.619Z,99102.34
2023-02-04T02:39:46.149Z,99105.06
2023-02-04T02:42:18.606Z,99105.94
2023-02-04T02:44:48.420Z,99118.13
2023-02-04T02:47:20.355Z,99126.00
2023-02-04T02:49:53.716Z,99126.09
2023-02-04T02:52:23.092Z,99137.38
2023-02-04T02:54:50.318Z,99152.22
2023-02-04T02:57:22.554Z,99161.81
2023-02-04T02:59:50.010Z,99165.28
2023-02-04T03:02:23.715Z,99171.44
2023-02-04T03:05:00.985Z,99166.25
2023-02-04T03:07:28.377Z,99185.41
2023-02-04T03:09:55.426Z,99213.28
2023-02-04T03:12:22.782Z,99214.22
2023-02-04T03:14:50.092Z,99227.25
2023-02-04T03:17:17.868Z,99232.41
2023-02-04T03:19:44.877Z,99236.69
2023-02-04T03:22:12.263Z,99248.97
2023-02-04T03:24:39.321Z,99255.13
2023-02-04T03:27:07.365Z,99285.56
2023-02-04T03:29:34.350Z,99270.84
2023-02-04T03:32:02.562Z,99283.88
2023-02-04T03:34:29.550Z,99288.19
2023-02-04T03:36:56.750Z,99296.00
2023-02-04T03:39:23.761Z,99296.03
2023-02-04T03:41:51.697Z,99307.34
2023-02-04T03:44:18.998Z,99316.03
2023-02-04T03:46:46.254Z,99329.97
2023-02-04T03:49:13.528Z,99335.13
2023-02-04T03:51:40.637Z,99340.38
2023-02-04T03:54:07.546Z,99344.72
2023-02-04T03:56:34.808Z,99360.34
2023-02-04T03:59:01.757Z,99353.38
2023-02-04T04:01:28.987Z,99369.88
2023-02-04T04:03:56.052Z,99388.97
2023-02-04T04:06:23.377Z,99399.41
2023-02-04T04:08:50.361Z,99411.53
2023-02-04T04:11:17.607Z,99412.44
2023-02-04T04:13:44.571Z,99428.91
2023-02-04T04:16:11.813Z,99451.50
2023-02-04T04:18:38.713Z,99448.03
2023-02-04T04:21:05.942Z,99459.28
2023-02-04T04:23:32.876Z,99473.22
2023-02-04T04:26:00.014Z,99498.44
2023-02-04T04:28:26.958Z,99491.50
2023-02-04T04:30:54.332Z,99501.03
2023-02-04T04:33:21.448Z,99496.72
2023-02-04T04:35:48.699Z,99509.75
2023-02-04T04:38:15.696Z,99521.06
2023-02-04T04:40:42.920Z,99529.72
2023-02-04T04:43:10.109Z,99538.44
2023-02-04T04:45:37.269Z,99554.94
2023-02-04T04:48:04.665Z,99563.59
2023-02-04T04:50:32.343Z,99560.13
2023-02-04T04:52:59.497Z,99581.00
2023-02-04T04:55:26.629Z,99579.22
2023-02-04T04:57:53.524Z,99588.78
2023-02-04T05:00:22.026Z,99587.94
2023-02-04T05:02:49.163Z,99592.25
2023-02-04T05:05:16.620Z,99603.56
2023-02-04T05:07:43.505Z,99610.53
2023-02-04T05:10:11.021Z,99637.44
2023-02-04T05:12:38.121Z,99645.28
2023-02-04T05:15:06.531Z,99658.25
2023-02-04T05:17:33.876Z,99656.53
2023-02-04T05:20:01.258Z,99653.13
2023-02-04T05:22:28.166Z,99657.47
2023-02-04T05:24:55.360Z,99664.44
2023-02-04T05:27:22.296Z,99670.50
2023-02-04T05:29:49.494Z,99684.38
2023-02-04T05:32:16.516Z,99684.41
2023-02-04T05:34:43.656Z,99703.50
2023-02-04T05:37:10.554Z,99709.59
2023-02-04T05:39:37.673Z,99717.38
2023-02-04T05:42:04.652Z,99723.44
2023-02-04T05:44:31.838Z,99727.81
2023-02-04T05:46:58.713Z,99736.47
2023-02-04T05:49:25.921Z,99736.47
2023-02-04T05:51:52.796Z,99733.88
2023-02-04T05:54:20.626Z,99753.91
2023-02-04T05:56:48.038Z,99757.38
2023-02-04T05:59:15.299Z,99760.84
2023-02-04T06:01:42.152Z,99768.63
2023-02-04T06:04:10.033Z,99776.47
2023-02-04T06:06:37.027Z,99781.63
2023-02-04T06:09:04.374Z,99798.16
2023-02-04T06:11:31.414Z,99801.66
2023-02-04T06:13:58.538Z,99813.84
2023-02-04T06:16:26.713Z,99822.56
2023-02-04T06:18:54.060Z,99817.34
2023-02-04T06:21:21.402Z,99820.00
2023-02-04T06:23:48.562Z,99824.34
2023-02-04T06:26:15.487Z,99832.16
2023-02-04T06:28:42.713Z,99833.91
2023-02-04T06:31:09.770Z,99845.16
2023-02-04T06:33:37.619Z,99853.81
2023-02-04T06:36:05.645Z,99856.41
2023-02-04T06:38:32.874Z,99870.38
2023-02-04T06:40:59.837Z,99877.38
2023-02-04T06:43:28.083Z,99877.31
2023-02-04T06:45:55.435Z,99892.06
2023-02-04T06:48:22.662Z,99897.22
2023-02-04T06:50:49.540Z,99908.53
2023-02-04T06:53:16.777Z,99916.34
2023-02-04T06:55:43.797Z,99928.47
2023-02-04T06:58:11.001Z,99930.25
2023-02-04T07:00:37.957Z,99938.97
2023-02-04T07:03:07.584Z,99946.88
2023-02-04T07:05:34.962Z,99955.50
2023-02-04T07:08:02.437Z,99977.31
2023-02-04T07:10:29.834Z,99978.19
2023-02-04T07:12:57.121Z,99983.41
2023-02-04T07:15:24.207Z,99987.72
2023-02-04T07:17:51.546Z,99998.16
2023-02-04T07:20:18.744Z,99993.88
2023-02-04T07:22:46.054Z,100006.00
2023-02-04T07:25:16.072Z,100011.19
2023-02-04T07:27:43.439Z,100007.78
2023-02-04T07:30:11.123Z,100018.25
2023-02-04T07:32:38.461Z,100013.03
2023-02-04T07:35:06.082Z,100031.31
2023-02-04T07:37:33.383Z,100034.84
2023-02-04T07:40:00.365Z,100034.88
2023-02-04T07:42:28.125Z,100044.47
2023-02-04T07:44:55.257Z,100050.56
2023-02-04T07:47:22.423Z,100047.13
2023-02-04T07:49:49.515Z,100058.34
2023-02-04T07:52:16.754Z,100052.28
2023-02-04T07:54:43.708Z,100066.19
2023-02-04T07:57:10.969Z,100061.84
2023-02-04T07:59:37.920Z,100067.00
2023-02-04T08:02:05.365Z,100073.94
2023-02-04T08:04:32.535Z,100086.13
2023-02-04T08:06:59.681Z,100085.28
2023-02-04T08:09:27.257Z,100086.13
2023-02-04T08:11:54.421Z,100089.53
2023-02-04T08:14:21.537Z,100093.78
2023-02-04T08:16:48.686Z,100105.97
2023-02-04T08:19:19.148Z,100095.59
2023-02-04T08:21:47.104Z,100108.50
2023-02-04T08:24:17.667Z,100113.78
2023-02-04T08:26:45.102Z,100112.94
2023-02-04T08:29:12.138Z,100127.75
2023-02-04T08:31:39.587Z,100130.34
2023-02-04T08:34:07.412Z,100129.41
2023-02-04T08:36:34.779Z,100133.88
2023-02-04T08:39:01.801Z,100126.94
2023-02-04T08:41:29.020Z,100141.72
2023-02-04T08:43:55.921Z,100146.13
2023-02-04T08:46:23.198Z,100146.97
2023-02-04T08:48:50.132Z,100147.03
2023-02-04T08:51:17.415Z,100160.09
2023-02-04T08:53:44.332Z,100168.66
2023-02-04T08:56:16.569Z,100179.97
2023-02-04T08:58:45.125Z,100183.50
2023-02-04T09:01:12.549Z,100188.69
2023-02-04T09:03:40.301Z,100195.59
2023-02-04T09:06:08.792Z,100195.59
2023-02-04T09:08:35.873Z,100205.19
2023-02-04T09:11:04.502Z,100209.50
2023-02-04T09:13:32.821Z,100208.69
2023-02-04T09:16:00.179Z,100206.09
2023-02-04T09:18:27.340Z,100203.53
2023-02-04T09:20:54.518Z,100213.03
2023-02-04T09:23:23.070Z,100218.25
2023-02-04T09:25:51.239Z,100225.13
2023-02-04T09:28:18.454Z,100226.00
2023-02-04T09:30:47.502Z,100233.00
2023-02-04T09:33:19.337Z,100243.19
2023-02-04T09:35:46.583Z,100249.34
2023-02-04T09:38:13.748Z,100255.63
2023-02-04T09:40:51.576Z,100263.50
2023-02-04T09:43:29.491Z,100267.94
2023-02-04T09:45:58.489Z,100268.88
2023-02-04T09:48:26.258Z,100273.28
2023-02-04T09:51:06.498Z,100281.16
2023-02-04T09:53:36.693Z,100289.03
2023-02-04T09:56:04.256Z,100290.84
2023-02-04T09:58:35.174Z,100297.88
2023-02-04T10:01:15.823Z,100305.59
2023-02-04T10:03:50.265Z,100296.88
2023-02-04T10:06:23.841Z,100306.53
2023-02-04T10:08:52.121Z,100297.78
2023-02-04T10:11:22.554Z,100302.22
2023-02-04T10:13:54.419Z,100302.25
2023-02-04T10:16:30.193Z,100297.94
2023-02-04T10:19:07.753Z,100307.53
2023-02-04T10:21:40.440Z,100308.47
2023-02-04T10:24:20.140Z,100305.03
2023-02-04T10:26:47.793Z,100314.56
2023-02-04T10:29:19.282Z,100307.47
2023-02-04T10:31:50.202Z,100323.91
2023-02-04T10:34:22.867Z,100326.44
2023-02-04T10:36:57.604Z,100333.28
2023-02-04T10:39:30.425Z,100329.78
2023-02-04T10:42:00.671Z,100339.28
2023-02-04T10:44:40.402Z,100331.34
2023-02-04T10:47:18.335Z,100334.84
2023-02-04T10:50:06.439Z,100337.44
2023-02-04T10:52:41.757Z,100326.25
2023-02-04T10:55:15.413Z,100336.78
2023-02-04T10:57:46.788Z,100333.41
2023-02-04T11:00:25.784Z,100338.69
2023-02-04T11:03:02.297Z,100341.38
2023-02-04T11:05:37.104Z,100345.69
2023-02-04T11:08:43.904Z,100350.00
2023-02-04T11:11:20.869Z,100353.53
2023-02-04T11:13:51.140Z,100358.56
2023-02-04T11:16:19.562Z,100358.53
2023-02-04T11:18:57.451Z,100358.63
2023-02-04T11:21:28.522Z,100369.88
2023-02-04T11:24:32.778Z,100383.75
2023-02-04T11:27:19.456Z,100374.28
2023-02-04T11:29:47.963Z,100386.50
2023-02-04T11:32:35.193Z,100384.06
2023-02-04T11:35:11.679Z,100390.25
2023-02-04T11:37:43.524Z,100380.63
2023-02-04T11:40:26.902Z,100383.22
2023-02-04T11:43:13.104Z,100388.31
2023-02-04T11:45:41.887Z,100392.69
2023-02-04T11:48:27.064Z,100385.81
2023-02-04T11:51:00.649Z,100378.91
2023-02-04T11:53:34.073Z,100376.38
2023-02-04T11:56:01.598Z,100391.19
2023-02-04T11:58:31.449Z,100384.16
2023-02-04T12:00:59.494Z,100383.38
2023-02-04T12:03:35.675Z,100388.53
2023-02-04T12:06:03.863Z,100386.91
2023-02-04T12:08:35.338Z,100385.22
2023-02-04T12:11:07.489Z,100387.84
2023-02-04T12:13:47.536Z,100391.19
2023-02-04T12:16:14.806Z,100383.38
2023-02-04T12:18:41.961Z,100395.50
2023-02-04T12:21:09.266Z,100391.25
2023-02-04T12:23:36.279Z,100400.88
2023-02-04T12:26:03.612Z,100395.66
2023-02-04T12:28:30.609Z,100398.22
2023-02-04T12:30:58.064Z,100391.19
2023-02-04T12:33:25.126Z,100392.06
2023-02-04T12:35:52.739Z,100394.75
2023-02-04T12:38:20.859Z,100389.53
2023-02-04T12:40:48.138Z,100396.56
2023-02-04T12:43:15.185Z,100398.28
2023-02-04T12:45:45.795Z,100393.03
2023-02-04T12:48:14.204Z,100392.94
2023-02-04T12:50:41.703Z,100391.25
2023-02-04T12:53:09.032Z,100398.28
2023-02-04T12:55:36.570Z,100393.81
2023-02-04T12:58:04.197Z,100388.41
2023-02-04T13:00:31.770Z,100400.53
2023-02-04T13:02:59.212Z,100398.72
2023-02-04T13:05:27.718Z,100404.06
2023-02-04T13:07:54.852Z,100394.53
2023-02-04T13:10:24.085Z,100395.25
2023-02-04T13:12:51.914Z,100402.28
2023-02-04T13:15:20.054Z,100398.78
2023-02-04T13:17:47.066Z,100409.28
2023-02-04T13:20:14.357Z,100405.81
2023-02-04T13:22:41.300Z,100403.28
2023-02-04T13:25:11.559Z,100408.34
2023-02-04T13:27:41.711Z,100408.34
2023-02-04T13:30:11.929Z,100406.81
2023-02-04T13:32:38.970Z,100408.59
2023-02-04T13:35:06.766Z,100411.31
2023-02-04T13:37:33.679Z,100411.41
2023-02-04T13:40:00.896Z,100406.06
2023-02-04T13:42:28.470Z,100410.41
2023-02-04T13:44:55.727Z,100416.47
2023-02-04T13:47:22.735Z,100418.16
2023-02-04T13:49:49.956Z,100426.78
2023-02-04T13:52:18.423Z,100421.66
2023-02-04T13:54:46.153Z,100424.34
2023-02-04T13:57:13.450Z,100425.25
2023-02-04T13:59:40.603Z,100421.78
2023-02-04T14:02:08.648Z,100413.78
2023-02-04T14:04:36.963Z,100420.91
2023-02-04T14:07:04.068Z,100427.09
2023-02-04T14:09:31.289Z,100431.53
2023-02-04T14:11:58.301Z,100420.28
2023-02-04T14:14:25.443Z,100428.97
2023-02-04T14:16:52.479Z,100429.03
2023-02-04T14:19:19.838Z,100435.06
2023-02-04T14:21:47.420Z,100437.75
2023-02-04T14:24:14.610Z,100436.81
2023-02-04T14:26:41.580Z,100438.31
2023-02-04T14:29:11.142Z,100443.38
2023-02-04T14:31:38.249Z,100443.47
2023-02-04T14:34:05.497Z,100449.53
2023-02-04T14:36:32.481Z,100449.56
2023-02-04T14:38:59.746Z,100441.69
2023-02-04T14:41:26.683Z,100455.69
2023-02-04T14:43:54.792Z,100442.69
2023-02-04T14:46:21.842Z,100443.53
2023-02-04T14:48:51.969Z,100441.78
2023-02-04T14:51:19.707Z,100441.84
2023-02-04T14:53:48.700Z,100441.91
2023-02-04T14:56:16.838Z,100438.38
2023-02-04T14:58:44.133Z,100440.09
2023-02-04T15:01:11.232Z,100436.56
2023-02-04T15:03:38.491Z,100437.44
2023-02-04T15:06:05.821Z,100446.19
2023-02-04T15:08:33.026Z,100439.91
2023-02-04T15:11:00.102Z,100447.75
2023-02-04T15:13:28.681Z,100451.28
2023-02-04T15:15:55.669Z,100450.31
2023-02-04T15:18:22.978Z,100448.44
2023-02-04T15:20:49.923Z,100451.06
2023-02-04T15:23:18.263Z,100450.06
2023-02-04T15:25:45.588Z,100458.88
2023-02-04T15:28:13.757Z,100462.22
2023-02-04T15:30:40.801Z,100456.97
2023-02-04T15:33:08.031Z,100453.41
2023-02-04T15:35:34.949Z,100451.56
2023-02-04T15:38:02.205Z,100455.94
2023-02-04T15:40:30.141Z,100451.59
2023-02-04T15:42:57.525Z,100452.53
2023-02-04T15:45:24.927Z,100451.59
2023-02-04T15:47:52.201Z,100440.19
2023-02-04T15:50:19.298Z,100458.47
2023-02-04T15:52:46.684Z,100447.97
2023-02-04T15:55:13.846Z,100459.16
2023-02-04T15:57:41.077Z,100467.00
2023-02-04T16:00:08.933Z,100462.66
2023-02-04T16:02:36.513Z,100460.84
2023-02-04T16:05:03.655Z,100463.53
2023-02-04T16:07:30.908Z,100469.66
2023-02-04T16:09:57.862Z,100467.09
2023-02-04T16:12:25.451Z,100467.09
2023-02-04T16:14:52.396Z,100467.94
2023-02-04T16:17:19.759Z,100466.22
2023-02-04T16:19:47.930Z,100468.81
2023-02-04T16:22:15.225Z,100471.28
2023-02-04T16:24:42.636Z,100468.66
2023-02-04T16:27:09.884Z,100471.31
2023-02-04T16:29:36.888Z,100467.03
2023-02-04T16:32:04.252Z,100465.22
2023-02-04T16:34:31.230Z,100473.84
2023-02-04T16:36:58.469Z,100476.25
2023-02-04T16:39:25.490Z,100478.78
2023-02-04T16:41:52.629Z,100477.94
2023-02-04T16:44:19.573Z,100480.50
2023-02-04T16:46:49.548Z,100493.53
2023-02-04T16:49:17.683Z,100491.59
2023-02-04T16:51:45.028Z,100488.19
2023-02-04T16:54:12.035Z,100492.47
2023-02-04T16:56:39.364Z,100493.25
2023-02-04T16:59:06.519Z,100484.66
2023-02-04T17:01:33.789Z,100486.38
2023-02-04T17:04:01.134Z,100487.31
2023-02-04T17:06:31.374Z,100497.75
2023-02-04T17:08:59.338Z,100495.91
2023-02-04T17:11:29.430Z,100495.81
2023-02-04T17:13:58.888Z,100497.50
2023-02-04T17:16:26.751Z,100497.56
2023-02-04T17:18:55.120Z,100504.53
2023-02-04T17:21:26.335Z,100502.81
2023-02-04T17:23:55.970Z,100503.59
2023-02-04T17:26:24.300Z,100507.06
2023-02-04T17:28:51.446Z,100509.59
2023-02-04T17:31:18.869Z,100508.66
2023-02-04T17:33:46.247Z,100513.03
2023-02-04T17:36:15.326Z,100515.56
2023-02-04T17:38:42.190Z,100515.59
2023-02-04T17:41:09.498Z,100520.78
2023-02-04T17:43:37.329Z,100511.25
2023-02-04T17:46:04.831Z,100521.53
2023-02-04T17:48:32.074Z,100517.97
2023-02-04T17:50:59.250Z,100518.75
2023-02-04T17:53:26.810Z,100516.16
2023-02-04T17:55:54.087Z,100515.34
2023-02-04T17:58:29.128Z,100515.22
2023-02-04T18:00:57.962Z,100516.97
2023-02-04T18:03:29.046Z,100529.00
2023-02-04T18:05:57.861Z,100535.16
2023-02-04T18:08:36.549Z,100529.91
2023-02-04T18:11:27.270Z,100537.66
2023-02-04T18:14:00.949Z,100536.78
2023-02-04T18:16:34.660Z,100535.00
2023-02-04T18:19:21.949Z,100537.50
2023-02-04T18:21:51.308Z,100533.06
2023-02-04T18:24:30.437Z,100535.63
2023-02-04T18:27:06.742Z,100532.94
2023-02-04T18:29:40.792Z,100541.47
2023-02-04T18:32:15.906Z,100533.69
2023-02-04T18:34:52.900Z,100534.66
2023-02-04T18:37:46.415Z,100537.19
2023-02-04T18:40:13.271Z,100534.63
2023-02-04T18:42:47.102Z,100532.03
2023-02-04T18:45:31.311Z,100538.16
2023-02-04T18:48:19.742Z,100533.75
2023-02-04T18:50:54.138Z,100533.88
2023-02-04T18:53:28.565Z,100536.44
2023-02-04T18:56:02.166Z,100531.25
2023-02-04T18:58:42.796Z,100526.88
2023-02-04T19:01:13.149Z,100537.28
2023-02-04T19:04:15.848Z,100532.16
2023-02-04T19:06:48.391Z,100540.91
2023-02-04T19:09:24.300Z,100539.16
2023-02-04T19:11:57.117Z,100536.44
2023-02-04T19:14:42.721Z,100537.28
2023-02-04T19:17:25.191Z,100541.69
2023-02-04T19:20:21.773Z,100534.75
2023-02-04T19:22:54.892Z,100535.59
2023-02-04T19:25:34.206Z,100539.06
2023-02-04T19:28:18.172Z,100545.22
2023-02-04T19:30:58.847Z,100545.19
2023-02-04T19:33:33.140Z,100546.97
2023-02-04T19:36:28.555Z,100547.94
2023-02-04T19:39:21.861Z,100557.50
2023-02-04T19:41:52.154Z,100555.78
2023-02-04T19:44:42.832Z,100561.84
2023-02-04T19:47:28.630Z,100558.41
2023-02-04T19:50:43.007Z,100559.19
2023-02-04T19:53:22.535Z,100560.91
2023-02-04T19:55:54.232Z,100560.91
2023-02-04T19:58:36.693Z,100563.41
2023-02-04T20:01:11.433Z,100562.50
2023-02-04T20:03:48.355Z,100570.34
2023-02-04T20:06:36.291Z,100565.16
2023-02-04T20:09:06.323Z,100555.53
2023-02-04T20:11:33.167Z,100560.69
2023-02-04T20:14:15.432Z,100560.75
2023-02-04T20:16:52.101Z,100565.13
2023-02-04T20:19:31.164Z,100564.31
2023-02-04T20:22:20.982Z,100564.31
2023-02-04T20:24:51.171Z,100566.88
2023-02-04T20:27:35.406Z,100571.13
2023-02-04T20:30:10.322Z,100572.75
2023-02-04T20:32:47.786Z,100575.53
2023-02-04T20:35:21.003Z,100576.53
2023-02-04T20:37:58.605Z,100580.94
2023-02-04T20:40:33.243Z,100580.97
2023-02-04T20:43:13.289Z,100581.84
2023-02-04T20:46:00.129Z,100586.16
2023-02-04T20:48:36.132Z,100589.69
2023-02-04T20:51:18.583Z,100596.53
2023-02-04T20:53:50.803Z,100603.38
2023-02-04T20:56:40.825Z,100614.72
2023-02-04T20:59:36.313Z,100613.75
2023-02-04T21:02:20.872Z,100611.16
2023-02-04T21:04:53.754Z,100617.34
2023-02-04T21:07:23.614Z,100616.50
2023-02-04T21:09:51.708Z,100612.19
2023-02-04T21:12:19.425Z,100622.59
2023-02-04T21:14:46.756Z,100626.97
2023-02-04T21:17:14.090Z,100624.31
2023-02-04T21:19:41.130Z,100626.94
2023-02-04T21:22:08.640Z,100634.69
2023-02-04T21:24:35.710Z,100634.63
2023-02-04T21:27:02.941Z,100640.81
2023-02-04T21:29:29.990Z,100640.78
2023-02-04T21:31:57.561Z,100647.75
2023-02-04T21:34:25.232Z,100639.97
2023-02-04T21:36:52.713Z,100648.66
2023-02-04T21:39:20.854Z,100648.63
2023-02-04T21:42:08.260Z,100646.75
2023-02-04T21:44:35.842Z,100654.59
2023-02-04T21:47:03.123Z,100655.53
2023-02-04T21:49:31.526Z,100657.25
2023-02-04T21:51:59.336Z,100653.75
2023-02-04T21:54:26.526Z,100657.22
2023-02-04T21:56:53.858Z,100660.72
2023-02-04T21:59:20.973Z,100664.97
2023-02-04T22:01:48.138Z,100659.91
2023-02-04T22:04:15.151Z,100664.22
2023-02-04T22:06:42.449Z,100668.53
2023-02-04T22:09:09.469Z,100664.19
2023-02-04T22:11:36.809Z,100665.88
2023-02-04T22:14:03.857Z,100665.97
2023-02-04T22:16:31.581Z,100666.09
2023-02-04T22:18:58.618Z,100667.72
2023-02-04T22:21:26.027Z,100673.81
2023-02-04T22:23:53.136Z,100672.13
2023-02-04T22:26:20.263Z,100678.25
2023-02-04T22:28:47.168Z,100671.41
2023-02-04T22:31:14.933Z,100675.66
2023-02-04T22:33:41.990Z,100667.84
2023-02-04T22:36:09.301Z,100679.16
2023-02-04T22:38:36.306Z,100675.66
2023-02-04T22:41:03.570Z,100679.16
2023-02-04T22:43:30.691Z,100684.38
2023-02-04T22:45:57.999Z,100679.88
2023-02-04T22:48:25.138Z,100681.66
2023-02-04T22:50:52.347Z,100683.09
2023-02-04T22:53:19.314Z,100684.84
2023-02-04T22:55:46.582Z,100685.78
2023-02-04T22:58:13.557Z,100688.41
2023-02-04T23:00:41.970Z,100698.69
2023-02-04T23:03:09.037Z,100694.28
2023-02-04T23:05:37.428Z,100694.34
2023-02-04T23:08:06.437Z,100692.50
2023-02-04T23:10:33.752Z,100694.13
2023-02-04T23:13:00.806Z,100695.75
2023-02-04T23:15:28.224Z,100708.75
2023-02-04T23:17:55.121Z,100700.88
2023-02-04T23:20:22.477Z,100707.91
2023-02-04T23:22:49.691Z,100705.38
2023-02-04T23:25:17.256Z,100707.16
2023-02-04T23:27:44.229Z,100704.50
2023-02-04T23:30:12.352Z,100708.00
2023-02-04T23:32:39.442Z,100709.66
2023-02-04T23:35:07.559Z,100710.34
2023-02-04T23:37:35.098Z,100709.34
2023-02-04T23:40:02.942Z,100703.28
2023-02-04T23:42:32.372Z,100709.25
2023-02-04T23:44:59.696Z,100702.19
2023-02-04T23:47:26.697Z,100704.66
2023-02-04T23:49:53.896Z,100707.19
2023-02-04T23:52:20.752Z,100701.97
2023-02-04T23:54:47.957Z,100712.19
2023-02-04T23:57:15.033Z,100703.38
2023-02-04T23:59:42.333Z,100702.25
